createdAt,value
2022-09-01T00:00:13.639Z,21.53
2022-09-01T00:02:44.456Z,21.39
2022-09-01T00:05:13.218Z,21.28
2022-09-01T00:07:40.682Z,21.24
2022-09-01T00:10:08.954Z,21.14
2022-09-01T00:12:38.377Z,21.13
2022-09-01T00:15:08.810Z,21.03
2022-09-01T00:17:40.111Z,20.93
2022-09-01T00:20:08.036Z,20.79
2022-09-01T00:22:35.218Z,20.78
2022-09-01T00:25:02.270Z,20.66
2022-09-01T00:27:30.962Z,20.69
2022-09-01T00:30:00.133Z,20.63
2022-09-01T00:32:28.047Z,20.64
2022-09-01T00:34:55.724Z,20.60
2022-09-01T00:37:22.992Z,20.55
2022-09-01T00:39:50.339Z,20.57
2022-09-01T00:42:17.595Z,20.76
2022-09-01T00:44:44.795Z,20.72
2022-09-01T00:47:14.662Z,20.63
2022-09-01T00:49:46.940Z,20.76
2022-09-01T00:52:19.038Z,20.98
2022-09-01T00:54:51.512Z,21.04
2022-09-01T00:57:18.997Z,20.82
2022-09-01T00:59:53.169Z,20.81
2022-09-01T01:02:20.557Z,20.93
2022-09-01T01:04:47.682Z,20.98
2022-09-01T01:07:17.069Z,20.85
2022-09-01T01:09:46.247Z,20.83
2022-09-01T01:12:18.612Z,20.69
2022-09-01T01:14:50.595Z,20.56
2022-09-01T01:17:22.084Z,20.52
2022-09-01T01:20:12.457Z,20.45
2022-09-01T01:23:11.042Z,20.30
2022-09-01T01:25:49.174Z,20.40
2022-09-01T01:28:24.782Z,20.23
2022-09-01T01:31:01.610Z,20.35
2022-09-01T01:33:42.999Z,20.32
2022-09-01T01:36:16.553Z,20.36
2022-09-01T01:38:47.035Z,20.40
2022-09-01T01:41:17.723Z,20.42
2022-09-01T01:43:45.031Z,20.47
2022-09-01T01:46:14.904Z,20.41
2022-09-01T01:48:43.188Z,20.14
2022-09-01T01:51:12.053Z,20.25
2022-09-01T01:53:40.841Z,20.18
2022-09-01T01:56:09.609Z,20.14
2022-09-01T01:58:37.468Z,20.16
2022-09-01T02:01:12.841Z,20.10
2022-09-01T02:03:41.094Z,20.10
2022-09-01T02:06:10.549Z,20.07
2022-09-01T02:08:39.494Z,20.02
2022-09-01T02:11:07.690Z,20.08
2022-09-01T02:13:36.073Z,20.02
2022-09-01T02:16:17.036Z,19.97
2022-09-01T02:18:48.997Z,19.89
2022-09-01T02:21:22.653Z,19.50
2022-09-01T02:24:02.264Z,19.68
2022-09-01T02:26:34.906Z,19.67
2022-09-01T02:29:06.056Z,19.66
2022-09-01T02:31:39.979Z,19.66
2022-09-01T02:34:14.244Z,19.62
2022-09-01T02:36:48.314Z,19.61
2022-09-01T02:39:23.695Z,19.64
2022-09-01T02:41:52.319Z,19.53
2022-09-01T02:44:24.250Z,19.54
2022-09-01T02:46:51.599Z,19.47
2022-09-01T02:49:28.388Z,19.43
2022-09-01T02:52:01.665Z,19.41
2022-09-01T02:54:32.532Z,19.37
2022-09-01T02:57:00.722Z,19.35
2022-09-01T02:59:30.532Z,19.35
2022-09-01T03:02:00.412Z,19.33
2022-09-01T03:04:27.862Z,19.36
2022-09-01T03:06:59.055Z,19.36
2022-09-01T03:09:26.413Z,19.30
2022-09-01T03:11:54.381Z,19.30
2022-09-01T03:14:24.922Z,19.30
2022-09-01T03:16:52.465Z,19.41
2022-09-01T03:19:22.276Z,19.41
2022-09-01T03:21:51.632Z,19.41
2022-09-01T03:24:26.079Z,19.44
2022-09-01T03:26:56.922Z,19.41
2022-09-01T03:29:24.898Z,19.46
2022-09-01T03:31:53.030Z,19.47
2022-09-01T03:34:23.744Z,19.64
2022-09-01T03:36:54.978Z,19.61
2022-09-01T03:39:29.873Z,19.53
2022-09-01T03:41:58.945Z,19.53
2022-09-01T03:44:27.488Z,19.53
2022-09-01T03:46:54.960Z,19.52
2022-09-01T03:49:27.896Z,19.51
2022-09-01T03:51:58.424Z,19.57
2022-09-01T03:54:28.565Z,19.50
2022-09-01T03:56:59.655Z,19.71
2022-09-01T03:59:28.692Z,19.72
2022-09-01T04:01:56.928Z,19.75
2022-09-01T04:04:24.780Z,19.71
2022-09-01T04:06:52.642Z,19.93
2022-09-01T04:09:21.183Z,19.85
2022-09-01T04:11:48.552Z,19.97
2022-09-01T04:14:20.582Z,19.95
2022-09-01T04:17:08.867Z,20.00
2022-09-01T04:19:39.718Z,20.06
2022-09-01T04:22:14.396Z,20.02
2022-09-01T04:24:46.601Z,20.07
2022-09-01T04:27:18.316Z,20.18
2022-09-01T04:29:47.167Z,20.20
2022-09-01T04:32:15.966Z,20.30
2022-09-01T04:34:47.090Z,20.31
2022-09-01T04:37:19.132Z,20.57
2022-09-01T04:39:55.739Z,20.69
2022-09-01T04:42:29.884Z,20.78
2022-09-01T04:45:07.163Z,20.81
2022-09-01T04:47:45.543Z,20.86
2022-09-01T04:50:17.990Z,20.99
2022-09-01T04:53:06.323Z,20.97
2022-09-01T04:55:50.024Z,20.99
2022-09-01T04:58:22.138Z,21.08
2022-09-01T05:00:53.463Z,21.14
2022-09-01T05:03:24.415Z,21.24
2022-09-01T05:06:23.851Z,21.53
2022-09-01T05:08:58.532Z,21.68
2022-09-01T05:11:45.603Z,21.73
2022-09-01T05:14:30.925Z,21.73
2022-09-01T05:16:59.767Z,21.70
2022-09-01T05:19:30.905Z,21.75
2022-09-01T05:22:00.602Z,21.78
2022-09-01T05:24:30.574Z,21.85
2022-09-01T05:27:01.225Z,21.97
2022-09-01T05:29:29.764Z,22.01
2022-09-01T05:31:58.832Z,22.07
2022-09-01T05:34:27.343Z,22.01
2022-09-01T05:36:58.212Z,22.09
2022-09-01T05:39:27.329Z,22.21
2022-09-01T05:41:54.773Z,22.34
2022-09-01T05:44:23.091Z,22.48
2022-09-01T05:46:53.678Z,22.49
2022-09-01T05:49:21.470Z,22.58
2022-09-01T05:51:52.553Z,22.59
2022-09-01T05:54:23.337Z,22.57
2022-09-01T05:56:50.887Z,22.78
2022-09-01T05:59:24.905Z,22.88
2022-09-01T06:02:01.107Z,22.86
2022-09-01T06:04:30.290Z,22.99
2022-09-01T06:07:09.017Z,23.09
2022-09-01T06:09:43.750Z,23.13
2022-09-01T06:12:18.654Z,23.20
2022-09-01T06:14:48.535Z,23.28
2022-09-01T06:17:19.715Z,23.46
2022-09-01T06:19:47.075Z,23.55
2022-09-01T06:22:16.200Z,23.67
2022-09-01T06:24:43.887Z,23.65
2022-09-01T06:27:12.895Z,23.79
2022-09-01T06:29:41.792Z,23.88
2022-09-01T06:32:13.229Z,23.96
2022-09-01T06:34:43.790Z,23.87
2022-09-01T06:37:13.427Z,23.79
2022-09-01T06:39:44.221Z,23.87
2022-09-01T06:42:14.116Z,23.93
2022-09-01T06:44:51.263Z,24.06
2022-09-01T06:47:19.500Z,24.12
2022-09-01T06:49:46.660Z,24.32
2022-09-01T06:52:22.706Z,24.33
2022-09-01T06:54:53.346Z,24.42
2022-09-01T07:00:20.247Z,24.51
2022-09-01T07:02:55.061Z,24.55
2022-09-01T07:16:30.107Z,24.82
2022-09-01T07:17:24.475Z,24.90
2022-09-01T07:19:52.121Z,25.07
2022-09-01T07:25:12.171Z,25.28
2022-09-01T07:27:55.719Z,25.44
2022-09-01T07:30:29.206Z,25.62
2022-09-01T07:33:41.456Z,25.75
2022-09-01T07:36:25.700Z,25.82
2022-09-01T07:44:29.178Z,25.95
2022-09-01T07:53:12.713Z,26.29
2022-09-01T07:55:44.356Z,26.42
2022-09-01T07:58:13.585Z,26.43
2022-09-01T08:00:47.436Z,26.35
2022-09-01T08:03:19.136Z,26.36
2022-09-01T08:05:47.587Z,26.42
2022-09-01T08:08:27.760Z,26.39
2022-09-01T08:11:04.241Z,26.41
2022-09-01T08:13:41.637Z,26.40
2022-09-01T08:16:17.970Z,26.51
2022-09-01T08:18:49.059Z,26.61
2022-09-01T08:21:41.070Z,26.79
2022-09-01T08:24:40.634Z,26.78
2022-09-01T08:27:08.510Z,26.97
2022-09-01T08:29:35.957Z,27.04
2022-09-01T08:32:03.538Z,27.11
2022-09-01T08:34:33.566Z,27.12
2022-09-01T08:37:01.095Z,27.08
2022-09-01T08:39:28.463Z,27.15
2022-09-01T08:42:12.417Z,27.08
2022-09-01T08:45:07.826Z,27.31
2022-09-01T08:47:55.970Z,27.28
2022-09-01T08:50:23.890Z,27.33
2022-09-01T08:53:21.164Z,27.20
2022-09-01T08:55:55.790Z,27.14
2022-09-01T08:58:23.158Z,27.16
2022-09-01T09:01:41.768Z,27.24
2022-09-01T09:04:19.902Z,27.25
2022-09-01T09:06:53.759Z,27.55
2022-09-01T09:09:32.315Z,27.45
2022-09-01T09:12:25.362Z,27.57
2022-09-01T09:15:11.947Z,27.80
2022-09-01T09:17:56.020Z,27.81
2022-09-01T09:20:28.148Z,27.95
2022-09-01T09:22:59.353Z,27.84
2022-09-01T09:25:29.786Z,27.84
2022-09-01T09:28:00.821Z,27.84
2022-09-01T09:30:31.475Z,27.95
2022-09-01T09:36:17.190Z,28.11
2022-09-01T09:38:44.400Z,28.23
2022-09-01T09:41:26.907Z,28.35
2022-09-01T09:44:16.633Z,28.27
2022-09-01T09:46:47.719Z,28.49
2022-09-01T09:49:21.682Z,28.52
2022-09-01T09:52:18.281Z,28.59
2022-09-01T09:55:30.575Z,28.45
2022-09-01T09:58:09.615Z,28.67
2022-09-01T10:00:37.094Z,28.97
2022-09-01T10:03:12.449Z,29.14
2022-09-01T10:05:48.923Z,29.16
2022-09-01T10:08:31.496Z,29.09
2022-09-01T10:10:59.223Z,29.21
2022-09-01T10:13:33.575Z,29.36
2022-09-01T10:16:05.423Z,29.51
2022-09-01T10:18:38.680Z,29.54
2022-09-01T10:21:15.266Z,29.57
2022-09-01T10:23:43.521Z,29.38
2022-09-01T10:26:23.131Z,29.34
2022-09-01T10:29:00.154Z,29.47
2022-09-01T10:31:32.229Z,29.56
2022-09-01T10:34:05.464Z,29.58
2022-09-01T10:36:37.804Z,29.34
2022-09-01T10:39:08.753Z,29.70
2022-09-01T10:41:42.616Z,29.94
2022-09-01T10:44:19.395Z,30.08
2022-09-01T10:46:51.364Z,30.15
2022-09-01T10:49:38.605Z,30.29
2022-09-01T10:52:12.950Z,30.35
2022-09-01T10:54:58.069Z,30.32
2022-09-01T10:57:51.906Z,30.23
2022-09-01T11:06:13.707Z,30.38
2022-09-01T11:08:51.057Z,30.50
2022-09-01T11:12:05.831Z,30.53
2022-09-01T11:14:36.082Z,30.62
2022-09-01T11:17:26.511Z,30.59
2022-09-01T11:20:12.871Z,30.61
2022-09-01T11:22:46.838Z,30.68
2022-09-01T11:25:39.266Z,30.65
2022-09-01T11:28:18.180Z,30.48
2022-09-01T11:30:55.519Z,30.08
2022-09-01T11:33:33.677Z,30.18
2022-09-01T11:36:24.343Z,30.13
2022-09-01T11:38:58.926Z,30.21
2022-09-01T11:41:34.140Z,30.32
2022-09-01T11:44:04.431Z,30.45
2022-09-01T11:46:34.899Z,30.60
2022-09-01T11:49:18.521Z,30.60
2022-09-01T11:52:17.062Z,30.67
2022-09-01T11:54:46.860Z,30.73
2022-09-01T11:57:30.144Z,30.78
2022-09-01T12:00:00.077Z,30.71
2022-09-01T12:02:36.727Z,30.85
2022-09-01T12:05:41.084Z,30.81
2022-09-01T12:08:18.455Z,30.69
2022-09-01T12:11:03.614Z,30.68
2022-09-01T12:13:30.926Z,30.58
2022-09-01T12:16:19.010Z,30.46
2022-09-01T12:18:50.012Z,30.21
2022-09-01T12:21:42.809Z,30.18
2022-09-01T12:24:34.307Z,30.14
2022-09-01T12:27:02.351Z,30.19
2022-09-01T12:29:32.149Z,30.28
2022-09-01T12:32:00.792Z,30.40
2022-09-01T12:34:33.627Z,30.58
2022-09-01T12:37:10.442Z,30.72
2022-09-01T12:39:46.250Z,30.71
2022-09-01T12:42:26.056Z,30.48
2022-09-01T12:45:09.049Z,30.25
2022-09-01T12:47:36.389Z,30.21
2022-09-01T12:50:16.966Z,30.14
2022-09-01T12:52:53.554Z,30.06
2022-09-01T12:58:12.819Z,30.04
2022-09-01T13:01:00.827Z,29.88
2022-09-01T13:03:30.236Z,29.94
2022-09-01T13:05:59.920Z,30.11
2022-09-01T13:08:34.213Z,30.08
2022-09-01T13:11:15.860Z,29.93
2022-09-01T13:13:43.579Z,29.90
2022-09-01T13:16:13.170Z,29.84
2022-09-01T13:21:31.641Z,29.72
2022-09-01T13:23:59.220Z,29.76
2022-09-01T13:26:26.545Z,29.76
2022-09-01T13:28:54.050Z,29.79
2022-09-01T13:31:29.267Z,29.81
2022-09-01T13:34:20.570Z,29.80
2022-09-01T13:36:48.575Z,29.76
2022-09-01T13:39:19.042Z,29.86
2022-09-01T13:41:48.556Z,29.83
2022-09-01T13:44:17.714Z,29.88
2022-09-01T13:47:28.271Z,29.91
2022-09-01T13:52:21.695Z,30.05
2022-09-01T13:54:50.076Z,30.15
2022-09-01T13:57:19.618Z,30.19
2022-09-01T13:59:46.730Z,30.21
2022-09-01T14:02:13.950Z,30.23
2022-09-01T14:04:41.509Z,30.40
2022-09-01T14:07:08.845Z,30.48
2022-09-01T14:09:38.951Z,30.45
2022-09-01T14:12:07.945Z,30.43
2022-09-01T14:17:26.514Z,30.22
2022-09-01T14:19:53.851Z,30.10
2022-09-01T14:22:21.226Z,30.12
2022-09-01T14:24:49.007Z,30.06
2022-09-01T14:27:16.329Z,29.91
2022-09-01T14:32:09.993Z,29.76
2022-09-01T14:34:37.645Z,29.68
2022-09-01T14:37:05.091Z,29.65
2022-09-01T14:39:32.493Z,29.64
2022-09-01T14:42:00.741Z,29.52
2022-09-01T14:44:27.970Z,29.52
2022-09-01T14:46:55.301Z,29.37
2022-09-01T14:49:22.691Z,29.47
2022-09-01T14:54:40.066Z,29.39
2022-09-01T14:59:54.760Z,29.32
2022-09-01T15:02:22.170Z,29.28
2022-09-01T15:04:49.328Z,29.21
2022-09-01T15:07:16.630Z,29.25
2022-09-01T15:09:43.785Z,29.18
2022-09-01T15:12:11.046Z,29.15
2022-09-01T15:14:38.477Z,29.11
2022-09-01T15:17:07.258Z,29.07
2022-09-01T15:19:35.397Z,28.99
2022-09-01T15:22:03.374Z,28.96
2022-09-01T15:24:30.835Z,28.72
2022-09-01T15:26:58.242Z,28.60
2022-09-01T15:30:17.359Z,28.51
2022-09-01T15:32:50.527Z,28.37
2022-09-01T15:35:19.487Z,28.28
2022-09-01T15:37:48.256Z,28.24
2022-09-01T15:40:16.665Z,28.23
2022-09-01T15:42:43.911Z,28.12
2022-09-01T15:45:15.063Z,28.16
2022-09-01T15:47:45.601Z,27.96
2022-09-01T15:50:16.843Z,27.95
2022-09-01T15:52:59.610Z,27.86
2022-09-01T15:55:41.190Z,27.91
2022-09-01T15:58:09.994Z,27.88
2022-09-01T16:00:37.267Z,27.90
2022-09-01T16:03:06.076Z,27.87
2022-09-01T16:05:36.774Z,27.86
2022-09-01T16:08:09.845Z,27.82
2022-09-01T16:10:40.153Z,27.79
2022-09-01T16:13:08.547Z,27.70
2022-09-01T16:15:51.220Z,27.60
2022-09-01T16:18:42.285Z,27.57
2022-09-01T16:21:30.978Z,27.45
2022-09-01T16:24:06.055Z,27.38
2022-09-01T16:26:36.202Z,27.42
2022-09-01T16:29:11.247Z,27.27
2022-09-01T16:31:42.834Z,27.33
2022-09-01T16:34:14.801Z,27.23
2022-09-01T16:36:41.848Z,27.23
2022-09-01T16:39:47.284Z,27.19
2022-09-01T16:42:46.893Z,27.15
2022-09-01T16:45:40.893Z,27.16
2022-09-01T16:48:19.602Z,27.08
2022-09-01T16:51:03.011Z,27.13
2022-09-01T16:53:53.234Z,27.14
2022-09-01T16:56:35.750Z,27.13
2022-09-01T16:59:14.450Z,27.08
2022-09-01T17:02:07.136Z,26.95
2022-09-01T17:04:47.769Z,26.96
2022-09-01T17:07:15.017Z,26.94
2022-09-01T17:09:46.452Z,26.93
2022-09-01T17:12:27.858Z,26.89
2022-09-01T17:15:02.130Z,26.74
2022-09-01T17:17:42.427Z,26.73
2022-09-01T17:20:12.089Z,26.67
2022-09-01T17:22:46.654Z,26.66
2022-09-01T17:25:26.147Z,26.65
2022-09-01T17:28:25.603Z,26.65
2022-09-01T17:31:28.539Z,26.60
2022-09-01T17:34:31.473Z,26.65
2022-09-01T17:37:06.283Z,26.65
2022-09-01T17:40:15.558Z,26.52
2022-09-01T17:43:05.087Z,26.47
2022-09-01T17:45:52.813Z,26.47
2022-09-01T17:48:52.854Z,26.41
2022-09-01T17:51:20.090Z,26.42
2022-09-01T17:54:02.424Z,26.37
2022-09-01T17:56:45.380Z,26.32
2022-09-01T17:59:22.668Z,26.32
2022-09-01T18:01:56.133Z,26.29
2022-09-01T18:04:35.672Z,26.19
2022-09-01T18:07:14.655Z,26.16
2022-09-01T18:09:54.455Z,26.15
2022-09-01T18:12:30.996Z,26.19
2022-09-01T18:15:19.967Z,26.26
2022-09-01T18:18:02.714Z,26.29
2022-09-01T18:20:39.185Z,26.32
2022-09-01T18:23:12.495Z,26.39
2022-09-01T18:25:51.132Z,26.33
2022-09-01T18:28:19.098Z,26.34
2022-09-01T18:31:25.531Z,26.31
2022-09-01T18:34:08.383Z,26.26
2022-09-01T18:36:44.915Z,26.28
2022-09-01T18:39:41.361Z,26.20
2022-09-01T18:42:34.325Z,26.22
2022-09-01T18:45:14.138Z,26.15
2022-09-01T18:48:01.507Z,26.06
2022-09-01T18:50:43.760Z,25.94
2022-09-01T18:53:34.236Z,25.93
2022-09-01T18:56:37.450Z,25.88
2022-09-01T18:59:36.764Z,25.81
2022-09-01T19:02:22.935Z,25.82
2022-09-01T19:04:57.901Z,25.70
2022-09-01T19:07:58.246Z,25.70
2022-09-01T19:10:42.704Z,25.58
2022-09-01T19:13:28.228Z,25.59
2022-09-01T19:16:24.793Z,25.61
2022-09-01T19:18:52.017Z,25.52
2022-09-01T19:21:25.305Z,25.46
2022-09-01T19:24:13.686Z,25.47
2022-09-01T19:26:55.050Z,25.40
2022-09-01T19:29:31.893Z,25.32
2022-09-01T19:32:07.112Z,25.34
2022-09-01T19:34:41.798Z,25.38
2022-09-01T19:37:10.768Z,25.35
2022-09-01T19:39:44.732Z,25.33
2022-09-01T19:42:18.342Z,25.29
2022-09-01T19:45:27.638Z,25.32
2022-09-01T19:48:19.224Z,25.33
2022-09-01T19:50:51.033Z,25.16
2022-09-01T19:53:50.925Z,25.17
2022-09-01T19:56:23.661Z,25.18
2022-09-01T19:59:14.198Z,25.15
2022-09-01T20:02:00.233Z,25.17
2022-09-01T20:04:47.402Z,25.08
2022-09-01T20:07:44.745Z,24.98
2022-09-01T20:10:14.944Z,25.00
2022-09-01T20:13:00.545Z,24.88
2022-09-01T20:15:40.265Z,24.93
2022-09-01T20:18:13.712Z,24.88
2022-09-01T20:20:48.806Z,24.84
2022-09-01T20:23:42.996Z,24.89
2022-09-01T20:26:19.060Z,24.91
2022-09-01T20:29:16.611Z,24.91
2022-09-01T20:31:46.543Z,24.87
2022-09-01T20:34:49.071Z,24.81
2022-09-01T20:37:22.056Z,24.74
2022-09-01T20:40:02.700Z,24.64
2022-09-01T20:42:43.892Z,24.63
2022-09-01T20:45:27.495Z,24.57
2022-09-01T20:48:01.888Z,24.41
2022-09-01T20:50:44.484Z,24.31
2022-09-01T20:53:30.293Z,24.32
2022-09-01T20:56:18.761Z,24.28
2022-09-01T20:59:32.268Z,24.21
2022-09-01T21:02:10.340Z,24.19
2022-09-01T21:04:47.880Z,24.15
2022-09-01T21:07:41.966Z,24.07
2022-09-01T21:10:53.890Z,23.98
2022-09-01T21:13:33.838Z,23.91
2022-09-01T21:16:36.141Z,23.92
2022-09-01T21:19:22.502Z,23.89
2022-09-01T21:22:01.674Z,23.76
2022-09-01T21:24:28.991Z,23.58
2022-09-01T21:26:58.183Z,23.55
2022-09-01T21:29:51.027Z,23.52
2022-09-01T21:32:18.502Z,23.45
2022-09-01T21:34:47.511Z,23.42
2022-09-01T21:37:15.222Z,23.36
2022-09-01T21:39:42.331Z,23.36
2022-09-01T21:42:10.966Z,23.27
2022-09-01T21:44:39.836Z,23.24
2022-09-01T21:47:07.068Z,23.23
2022-09-01T21:49:34.371Z,23.22
2022-09-01T21:52:01.640Z,23.25
2022-09-01T21:54:28.823Z,23.34
2022-09-01T21:56:55.965Z,23.37
2022-09-01T21:59:23.142Z,23.38
2022-09-01T22:01:50.850Z,23.40
2022-09-01T22:04:23.158Z,23.41
2022-09-01T22:06:51.566Z,23.47
2022-09-01T22:09:20.614Z,23.45
2022-09-01T22:11:48.910Z,23.48
2022-09-01T22:14:16.442Z,23.38
2022-09-01T22:16:43.921Z,23.35
2022-09-01T22:19:11.006Z,23.33
2022-09-01T22:21:41.669Z,23.37
2022-09-01T22:24:09.050Z,23.43
2022-09-01T22:26:36.507Z,23.57
2022-09-01T22:29:06.896Z,23.66
2022-09-01T22:31:37.774Z,23.74
2022-09-01T22:34:06.296Z,23.85
2022-09-01T22:36:39.777Z,23.84
2022-09-01T22:39:09.395Z,23.89
2022-09-01T22:41:38.144Z,23.91
2022-09-01T22:44:05.498Z,23.96
2022-09-01T22:46:35.569Z,23.95
2022-09-01T22:49:03.277Z,23.97
2022-09-01T22:51:32.151Z,23.94
2022-09-01T22:53:59.465Z,23.93
2022-09-01T22:56:29.566Z,23.88
2022-09-01T22:59:01.546Z,23.94
2022-09-01T23:01:33.150Z,23.83
2022-09-01T23:04:01.885Z,23.91
2022-09-01T23:06:30.657Z,23.87
2022-09-01T23:08:59.848Z,23.82
2022-09-01T23:11:27.557Z,23.82
2022-09-01T23:13:55.772Z,23.81
2022-09-01T23:16:25.194Z,23.79
2022-09-01T23:18:53.552Z,23.75
2022-09-01T23:21:24.080Z,23.71
2022-09-01T23:23:57.390Z,23.72
2022-09-01T23:26:27.812Z,23.78
2022-09-01T23:28:55.556Z,23.79
2022-09-01T23:31:25.225Z,23.82
2022-09-01T23:33:52.955Z,23.86
2022-09-01T23:36:23.931Z,23.79
2022-09-01T23:38:51.788Z,23.73
2022-09-01T23:41:23.342Z,23.73
2022-09-01T23:43:52.942Z,23.77
2022-09-01T23:46:29.472Z,23.76
2022-09-01T23:48:57.491Z,23.68
2022-09-01T23:51:25.702Z,23.68
2022-09-01T23:53:53.363Z,23.66
2022-09-01T23:56:23.555Z,23.59
2022-09-01T23:58:51.218Z,23.58
